createdAt,value
2023-04-03T00:00:32.741Z,26.41
2023-04-03T00:01:32.775Z,26.44
2023-04-03T00:02:32.919Z,26.44
2023-04-03T00:03:32.846Z,26.42
2023-04-03T00:04:32.954Z,26.44
2023-04-03T00:05:32.926Z,26.42
2023-04-03T00:06:32.964Z,26.44
2023-04-03T00:07:33.012Z,26.45
2023-04-03T00:08:33.078Z,26.43
2023-04-03T00:09:33.133Z,26.47
2023-04-03T00:10:33.190Z,26.46
2023-04-03T00:11:33.231Z,26.43
2023-04-03T00:12:33.276Z,26.42
2023-04-03T00:13:33.331Z,26.38
2023-04-03T00:14:33.356Z,26.37
2023-04-03T00:15:33.394Z,26.36
2023-04-03T00:16:33.474Z,26.32
2023-04-03T00:17:33.492Z,26.29
2023-04-03T00:18:33.534Z,26.30
2023-04-03T00:19:33.565Z,26.27
2023-04-03T00:20:33.661Z,26.26
2023-04-03T00:21:33.638Z,26.26
2023-04-03T00:22:33.697Z,26.24
2023-04-03T00:23:33.732Z,26.23
2023-04-03T00:24:33.778Z,26.24
2023-04-03T00:25:33.812Z,26.24
2023-04-03T00:26:33.866Z,26.23
2023-04-03T00:27:33.903Z,26.26
2023-04-03T00:28:33.978Z,26.26
2023-04-03T00:29:33.984Z,26.24
2023-04-03T00:30:34.043Z,26.25
2023-04-03T00:31:34.152Z,26.25
2023-04-03T00:32:34.148Z,26.25
2023-04-03T00:33:34.177Z,26.24
2023-04-03T00:34:34.213Z,26.24
2023-04-03T00:35:34.327Z,26.24
2023-04-03T00:36:34.345Z,26.25
2023-04-03T00:37:34.333Z,26.25
2023-04-03T00:38:34.386Z,26.28
2023-04-03T00:39:34.444Z,26.26
2023-04-03T00:40:34.691Z,26.27
2023-04-03T00:41:34.555Z,26.28
2023-04-03T00:42:34.605Z,26.29
2023-04-03T00:43:34.650Z,26.26
2023-04-03T00:44:34.701Z,26.31
2023-04-03T00:45:34.740Z,26.29
2023-04-03T00:46:34.816Z,26.29
2023-04-03T00:47:34.886Z,26.30
2023-04-03T00:48:34.887Z,26.30
2023-04-03T00:49:34.975Z,26.29
2023-04-03T00:50:35.165Z,26.27
2023-04-03T00:51:34.996Z,26.29
2023-04-03T00:52:35.055Z,26.29
2023-04-03T00:53:35.087Z,26.26
2023-04-03T00:54:35.134Z,26.28
2023-04-03T00:55:35.154Z,26.27
2023-04-03T00:56:35.202Z,26.30
2023-04-03T00:57:35.302Z,26.30
2023-04-03T00:58:35.309Z,26.27
2023-04-03T00:59:35.335Z,26.27
2023-04-03T01:00:35.611Z,26.26
2023-04-03T01:01:35.418Z,26.27
2023-04-03T01:02:35.442Z,26.25
2023-04-03T01:03:35.471Z,26.28
2023-04-03T01:04:35.579Z,26.24
2023-04-03T01:05:35.561Z,26.25
2023-04-03T01:06:35.604Z,26.24
2023-04-03T01:07:35.652Z,26.24
2023-04-03T01:08:35.659Z,26.21
2023-04-03T01:09:35.721Z,26.20
2023-04-03T01:10:35.914Z,26.17
2023-04-03T01:11:35.725Z,26.15
2023-04-03T01:12:35.774Z,26.13
2023-04-03T01:13:35.845Z,26.09
2023-04-03T01:14:35.842Z,26.08
2023-04-03T01:15:35.896Z,26.05
2023-04-03T01:16:36.004Z,26.03
2023-04-03T01:17:35.972Z,26.03
2023-04-03T01:18:36.012Z,26.00
2023-04-03T01:19:36.028Z,25.97
2023-04-03T01:20:36.231Z,25.94
2023-04-03T01:21:36.126Z,25.93
2023-04-03T01:22:36.160Z,25.93
2023-04-03T01:23:36.222Z,25.92
2023-04-03T01:24:36.228Z,25.88
2023-04-03T01:25:36.221Z,25.89
2023-04-03T01:26:36.273Z,25.84
2023-04-03T01:27:36.289Z,25.83
2023-04-03T01:28:36.467Z,25.83
2023-04-03T01:29:36.419Z,25.84
2023-04-03T01:30:36.592Z,25.83
2023-04-03T01:31:36.517Z,25.84
2023-04-03T01:32:36.574Z,25.81
2023-04-03T01:33:36.568Z,25.84
2023-04-03T01:34:36.512Z,25.83
2023-04-03T01:35:36.540Z,25.83
2023-04-03T01:36:36.560Z,25.83
2023-04-03T01:37:36.582Z,25.81
2023-04-03T01:38:37.361Z,25.83
2023-04-03T01:39:36.625Z,25.81
2023-04-03T01:40:36.942Z,25.82
2023-04-03T01:41:36.681Z,25.82
2023-04-03T01:42:36.722Z,25.80
2023-04-03T01:43:36.756Z,25.79
2023-04-03T01:44:36.787Z,25.78
2023-04-03T01:45:36.874Z,25.80
2023-04-03T01:46:36.841Z,25.79
2023-04-03T01:47:36.851Z,25.78
2023-04-03T01:48:36.880Z,25.78
2023-04-03T01:49:36.912Z,25.74
2023-04-03T01:50:37.279Z,25.73
2023-04-03T01:51:36.999Z,25.72
2023-04-03T01:52:37.019Z,25.68
2023-04-03T01:53:37.062Z,25.69
2023-04-03T01:54:37.131Z,25.66
2023-04-03T01:55:37.162Z,25.67
2023-04-03T01:56:37.221Z,25.66
2023-04-03T01:57:37.258Z,25.65
2023-04-03T01:58:37.282Z,25.67
2023-04-03T01:59:37.303Z,25.66
2023-04-03T02:00:37.633Z,25.66
2023-04-03T02:01:37.655Z,25.66
2023-04-03T02:02:37.458Z,25.65
2023-04-03T02:03:37.471Z,25.67
2023-04-03T02:04:37.471Z,25.65
2023-04-03T02:05:37.496Z,25.63
2023-04-03T02:06:37.526Z,25.62
2023-04-03T02:07:37.528Z,25.62
2023-04-03T02:08:37.563Z,25.61
2023-04-03T02:09:37.574Z,25.59
2023-04-03T02:10:37.864Z,25.61
2023-04-03T02:11:37.611Z,25.62
2023-04-03T02:12:37.624Z,25.59
2023-04-03T02:13:37.644Z,25.61
2023-04-03T02:14:37.726Z,25.59
2023-04-03T02:15:37.684Z,25.59
2023-04-03T02:16:37.812Z,25.60
2023-04-03T02:17:37.764Z,25.62
2023-04-03T02:18:37.752Z,25.57
2023-04-03T02:19:37.765Z,25.56
2023-04-03T02:20:38.020Z,25.53
2023-04-03T02:21:37.800Z,25.55
2023-04-03T02:22:37.849Z,25.53
2023-04-03T02:23:37.845Z,25.54
2023-04-03T02:24:37.843Z,25.53
2023-04-03T02:25:38.930Z,25.52
2023-04-03T02:26:37.899Z,25.51
2023-04-03T02:27:37.918Z,25.50
2023-04-03T02:28:37.932Z,25.50
2023-04-03T02:29:37.968Z,25.49
2023-04-03T02:30:38.096Z,25.49
2023-04-03T02:31:37.961Z,25.48
2023-04-03T02:32:38.007Z,25.46
2023-04-03T02:33:38.003Z,25.47
2023-04-03T02:34:38.026Z,25.49
2023-04-03T02:35:38.065Z,25.46
2023-04-03T02:36:38.065Z,25.46
2023-04-03T02:37:38.065Z,25.46
2023-04-03T02:38:38.105Z,25.45
2023-04-03T02:39:38.083Z,25.44
2023-04-03T02:40:38.412Z,25.46
2023-04-03T02:41:38.103Z,25.44
2023-04-03T02:42:38.138Z,25.42
2023-04-03T02:43:38.132Z,25.42
2023-04-03T02:44:38.155Z,25.43
2023-04-03T02:45:38.168Z,25.43
2023-04-03T02:46:38.234Z,25.43
2023-04-03T02:47:38.254Z,25.40
2023-04-03T02:48:38.230Z,25.40
2023-04-03T02:49:38.255Z,25.35
2023-04-03T02:50:38.513Z,25.31
2023-04-03T02:51:38.331Z,25.30
2023-04-03T02:52:38.347Z,25.27
2023-04-03T02:53:38.336Z,25.26
2023-04-03T02:54:38.369Z,25.24
2023-04-03T02:55:38.394Z,25.26
2023-04-03T02:56:38.423Z,25.24
2023-04-03T02:57:38.447Z,25.24
2023-04-03T02:58:38.440Z,25.21
2023-04-03T02:59:38.463Z,25.24
2023-04-03T03:00:38.709Z,25.26
2023-04-03T03:01:38.596Z,25.23
2023-04-03T03:02:38.513Z,25.27
2023-04-03T03:03:38.483Z,25.25
2023-04-03T03:04:38.501Z,25.26
2023-04-03T03:05:38.486Z,25.28
2023-04-03T03:06:38.499Z,25.28
2023-04-03T03:07:38.504Z,25.24
2023-04-03T03:08:38.499Z,25.25
2023-04-03T03:09:38.516Z,25.22
2023-04-03T03:10:39.031Z,25.24
2023-04-03T03:11:38.523Z,25.15
2023-04-03T03:12:38.540Z,25.14
2023-04-03T03:13:38.547Z,25.13
2023-04-03T03:14:38.532Z,25.06
2023-04-03T03:15:38.577Z,25.00
2023-04-03T03:16:38.556Z,25.00
2023-04-03T03:17:38.595Z,25.00
2023-04-03T03:18:38.551Z,24.98
2023-04-03T03:19:38.552Z,24.91
2023-04-03T03:20:38.717Z,24.87
2023-04-03T03:21:38.540Z,24.90
2023-04-03T03:22:38.570Z,24.79
2023-04-03T03:23:38.551Z,24.75
2023-04-03T03:24:38.545Z,24.74
2023-04-03T03:25:38.841Z,24.67
2023-04-03T03:26:38.563Z,24.64
2023-04-03T03:27:38.562Z,24.65
2023-04-03T03:28:38.566Z,24.67
2023-04-03T03:29:38.582Z,24.62
2023-04-03T03:30:38.606Z,24.48
2023-04-03T03:31:38.654Z,24.51
2023-04-03T03:32:38.649Z,24.52
2023-04-03T03:33:38.619Z,24.50
2023-04-03T03:34:38.639Z,24.48
2023-04-03T03:35:38.842Z,24.43
2023-04-03T03:36:38.637Z,24.35
2023-04-03T03:37:38.639Z,24.38
2023-04-03T03:38:38.644Z,24.43
2023-04-03T03:39:38.644Z,24.46
2023-04-03T03:40:38.628Z,24.45
2023-04-03T03:41:38.637Z,24.44
2023-04-03T03:42:38.643Z,24.41
2023-04-03T03:43:38.658Z,24.43
2023-04-03T03:44:38.667Z,24.45
2023-04-03T03:45:38.896Z,24.48
2023-04-03T03:46:38.743Z,24.42
2023-04-03T03:47:38.709Z,24.45
2023-04-03T03:48:38.687Z,24.46
2023-04-03T03:49:38.669Z,24.45
2023-04-03T03:50:38.677Z,24.45
2023-04-03T03:51:38.679Z,24.42
2023-04-03T03:52:38.670Z,24.44
2023-04-03T03:53:38.685Z,24.46
2023-04-03T03:54:38.686Z,24.45
2023-04-03T03:55:39.033Z,24.43
2023-04-03T03:56:38.682Z,24.45
2023-04-03T03:57:38.706Z,24.41
2023-04-03T03:58:38.711Z,24.41
2023-04-03T04:00:06.358Z,24.42
2023-04-03T04:01:06.337Z,24.43
2023-04-03T04:02:06.383Z,24.43
2023-04-03T04:03:06.404Z,24.40
2023-04-03T04:04:06.361Z,24.39
2023-04-03T04:05:06.292Z,24.37
2023-04-03T04:06:06.283Z,24.37
2023-04-03T04:07:06.309Z,24.37
2023-04-03T04:08:06.279Z,24.35
2023-04-03T04:09:06.276Z,24.34
2023-04-03T04:10:06.253Z,24.34
2023-04-03T04:11:06.261Z,24.31
2023-04-03T04:12:06.246Z,24.30
2023-04-03T04:13:06.254Z,24.32
2023-04-03T04:14:06.244Z,24.31
2023-04-03T04:15:06.239Z,24.30
2023-04-03T04:16:06.231Z,24.30
2023-04-03T04:17:06.288Z,24.29
2023-04-03T04:18:06.294Z,24.23
2023-04-03T04:19:08.434Z,24.24
2023-04-03T04:20:06.197Z,24.23
2023-04-03T04:21:06.179Z,24.22
2023-04-03T04:22:06.187Z,24.26
2023-04-03T04:23:06.192Z,24.25
2023-04-03T04:24:06.166Z,24.22
2023-04-03T04:25:06.175Z,24.25
2023-04-03T04:26:06.161Z,24.23
2023-04-03T04:27:06.161Z,24.26
2023-04-03T04:28:06.146Z,24.23
2023-04-03T04:29:06.127Z,24.25
2023-04-03T04:30:06.116Z,24.23
2023-04-03T04:31:06.247Z,24.24
2023-04-03T04:32:06.128Z,24.23
2023-04-03T04:33:06.153Z,24.25
2023-04-03T04:34:06.093Z,24.25
2023-04-03T04:35:06.155Z,24.26
2023-04-03T04:36:06.167Z,24.25
2023-04-03T04:37:06.167Z,24.24
2023-04-03T04:38:06.075Z,24.24
2023-04-03T04:39:06.062Z,24.26
2023-04-03T04:40:06.059Z,24.25
2023-04-03T04:41:06.065Z,24.25
2023-04-03T04:42:06.039Z,24.24
2023-04-03T04:43:06.051Z,24.23
2023-04-03T04:44:06.040Z,24.22
2023-04-03T04:45:06.014Z,24.18
2023-04-03T04:46:06.107Z,24.20
2023-04-03T04:47:06.017Z,24.19
2023-04-03T04:48:06.032Z,24.19
2023-04-03T04:49:06.006Z,24.18
2023-04-03T04:50:06.004Z,24.18
2023-04-03T04:51:06.003Z,24.17
2023-04-03T04:52:06.004Z,24.17
2023-04-03T04:53:05.981Z,24.19
2023-04-03T04:54:05.966Z,24.17
2023-04-03T04:55:05.975Z,24.14
2023-04-03T04:56:05.953Z,24.15
2023-04-03T04:57:05.975Z,24.12
2023-04-03T04:58:05.927Z,24.11
2023-04-03T04:59:05.918Z,24.09
2023-04-03T05:00:05.940Z,24.13
2023-04-03T05:01:05.933Z,24.09
2023-04-03T05:02:05.945Z,24.09
2023-04-03T05:03:05.937Z,24.09
2023-04-03T05:04:05.892Z,24.10
2023-04-03T05:05:05.917Z,24.05
2023-04-03T05:06:05.883Z,24.05
2023-04-03T05:07:05.884Z,24.05
2023-04-03T05:08:05.927Z,24.04
2023-04-03T05:09:06.100Z,24.02
2023-04-03T05:10:06.033Z,24.04
2023-04-03T05:11:06.095Z,24.01
2023-04-03T05:12:06.140Z,23.99
2023-04-03T05:13:06.205Z,24.00
2023-04-03T05:14:06.302Z,24.02
2023-04-03T05:15:06.318Z,23.96
2023-04-03T05:16:06.456Z,23.99
2023-04-03T05:17:06.384Z,23.98
2023-04-03T05:18:06.469Z,23.94
2023-04-03T05:19:06.502Z,23.94
2023-04-03T05:20:06.531Z,23.95
2023-04-03T05:21:06.600Z,23.93
2023-04-03T05:22:06.652Z,23.93
2023-04-03T05:23:06.701Z,23.91
2023-04-03T05:24:06.725Z,23.90
2023-04-03T05:25:06.813Z,23.89
2023-04-03T05:26:06.870Z,23.89
2023-04-03T05:27:06.879Z,23.85
2023-04-03T05:28:06.938Z,23.85
2023-04-03T05:29:06.957Z,23.85
2023-04-03T05:30:07.019Z,23.85
2023-04-03T05:31:07.199Z,23.84
2023-04-03T05:32:07.125Z,23.83
2023-04-03T05:33:07.187Z,23.81
2023-04-03T05:34:07.227Z,23.84
2023-04-03T05:35:07.257Z,23.84
2023-04-03T05:36:07.349Z,23.82
2023-04-03T05:37:07.380Z,23.82
2023-04-03T05:38:07.422Z,23.83
2023-04-03T05:39:07.491Z,23.82
2023-04-03T05:40:07.516Z,23.80
2023-04-03T05:41:07.572Z,23.78
2023-04-03T05:42:07.631Z,23.78
2023-04-03T05:43:07.694Z,23.78
2023-04-03T05:44:07.751Z,23.81
2023-04-03T05:45:07.807Z,23.80
2023-04-03T05:46:07.861Z,23.80
2023-04-03T05:47:07.886Z,23.78
2023-04-03T05:48:07.998Z,23.78
2023-04-03T05:49:07.988Z,23.73
2023-04-03T05:50:08.049Z,23.73
2023-04-03T05:51:08.120Z,23.73
2023-04-03T05:52:08.130Z,23.74
2023-04-03T05:53:08.258Z,23.75
2023-04-03T05:54:08.251Z,23.73
2023-04-03T05:55:08.289Z,23.73
2023-04-03T05:56:08.329Z,23.71
2023-04-03T05:57:08.434Z,23.72
2023-04-03T05:58:09.787Z,23.71
2023-04-03T05:59:08.442Z,23.71
2023-04-03T06:00:08.499Z,23.67
2023-04-03T06:01:08.416Z,23.70
2023-04-03T06:02:08.434Z,23.62
2023-04-03T06:03:08.517Z,23.67
2023-04-03T06:04:08.502Z,23.65
2023-04-03T06:05:08.489Z,23.64
2023-04-03T06:06:08.400Z,23.63
2023-04-03T06:07:08.388Z,23.65
2023-04-03T06:08:08.373Z,23.64
2023-04-03T06:09:08.378Z,23.63
2023-04-03T06:10:08.364Z,23.63
2023-04-03T06:11:08.360Z,23.62
2023-04-03T06:12:08.351Z,23.60
2023-04-03T06:13:08.359Z,23.57
2023-04-03T06:14:08.323Z,23.59
2023-04-03T06:15:08.315Z,23.58
2023-04-03T06:16:08.312Z,23.57
2023-04-03T06:17:08.404Z,23.53
2023-04-03T06:18:08.402Z,23.55
2023-04-03T06:19:08.308Z,23.57
2023-04-03T06:20:08.309Z,23.57
2023-04-03T06:21:08.288Z,23.56
2023-04-03T06:22:08.284Z,23.56
2023-04-03T06:23:08.695Z,23.57
2023-04-03T06:24:08.282Z,23.57
2023-04-03T06:25:08.286Z,23.54
2023-04-03T06:26:08.259Z,23.54
2023-04-03T06:27:08.253Z,23.55
2023-04-03T06:28:08.228Z,23.54
2023-04-03T06:29:08.233Z,23.54
2023-04-03T06:30:08.231Z,23.54
2023-04-03T06:31:08.222Z,23.54
2023-04-03T06:32:08.218Z,23.54
2023-04-03T06:33:08.262Z,23.52
2023-04-03T06:34:09.718Z,23.52
2023-04-03T06:35:08.198Z,23.50
2023-04-03T06:36:08.374Z,23.51
2023-04-03T06:37:08.168Z,23.49
2023-04-03T06:38:08.243Z,23.49
2023-04-03T06:39:08.155Z,23.48
2023-04-03T06:40:08.173Z,23.46
2023-04-03T06:41:08.233Z,23.45
2023-04-03T06:42:08.282Z,23.45
2023-04-03T06:43:08.340Z,23.42
2023-04-03T06:44:08.406Z,23.43
2023-04-03T06:45:08.451Z,23.39
2023-04-03T06:46:08.523Z,23.41
2023-04-03T06:47:08.553Z,23.39
2023-04-03T06:48:08.670Z,23.34
2023-04-03T06:49:08.656Z,23.36
2023-04-03T06:50:08.974Z,23.35
2023-04-03T06:51:08.754Z,23.37
2023-04-03T06:52:08.827Z,23.39
2023-04-03T06:53:08.861Z,23.34
2023-04-03T06:54:08.956Z,23.34
2023-04-03T06:55:08.971Z,23.35
2023-04-03T06:56:09.002Z,23.32
2023-04-03T06:57:09.077Z,23.35
2023-04-03T06:58:09.120Z,23.35
2023-04-03T06:59:09.226Z,23.32
2023-04-03T07:00:09.221Z,23.35
2023-04-03T07:01:09.300Z,23.35
2023-04-03T07:02:09.424Z,23.34
2023-04-03T07:03:09.427Z,23.32
2023-04-03T07:04:09.501Z,23.32
2023-04-03T07:05:09.793Z,23.31
2023-04-03T07:06:09.579Z,23.33
2023-04-03T07:07:09.629Z,23.30
2023-04-03T07:08:09.695Z,23.30
2023-04-03T07:09:09.725Z,23.30
2023-04-03T07:10:09.780Z,23.28
2023-04-03T07:11:09.844Z,23.28
2023-04-03T07:12:09.896Z,23.27
2023-04-03T07:13:09.959Z,23.28
2023-04-03T07:14:10.015Z,23.27
2023-04-03T07:15:10.069Z,23.27
2023-04-03T07:16:10.150Z,23.27
2023-04-03T07:17:10.178Z,23.24
2023-04-03T07:18:10.279Z,23.24
2023-04-03T07:19:10.268Z,23.24
2023-04-03T07:20:10.513Z,23.24
2023-04-03T07:21:10.411Z,23.25
2023-04-03T07:22:10.517Z,23.22
2023-04-03T07:23:10.501Z,23.22
2023-04-03T07:24:13.090Z,23.23
2023-04-03T07:25:11.523Z,23.21
2023-04-03T07:26:10.544Z,23.19
2023-04-03T07:27:10.539Z,23.23
2023-04-03T07:28:10.520Z,23.19
2023-04-03T07:29:10.511Z,23.17
2023-04-03T07:30:10.506Z,23.19
2023-04-03T07:31:10.515Z,23.19
2023-04-03T07:32:10.496Z,23.21
2023-04-03T07:33:10.519Z,23.17
2023-04-03T07:34:10.547Z,23.16
2023-04-03T07:35:10.575Z,23.17
2023-04-03T07:36:10.651Z,23.16
2023-04-03T07:37:10.671Z,23.17
2023-04-03T07:38:10.762Z,23.15
2023-04-03T07:39:10.780Z,23.13
2023-04-03T07:40:10.855Z,23.13
2023-04-03T07:41:10.881Z,23.10
2023-04-03T07:42:10.943Z,23.14
2023-04-03T07:43:11.001Z,23.11
2023-04-03T07:44:11.016Z,23.10
2023-04-03T07:45:11.081Z,23.11
2023-04-03T07:46:11.165Z,23.10
2023-04-03T07:47:11.197Z,23.11
2023-04-03T07:48:11.283Z,23.11
2023-04-03T07:49:11.278Z,23.09
2023-04-03T07:50:11.365Z,23.11
2023-04-03T07:51:11.398Z,23.09
2023-04-03T07:52:11.450Z,23.08
2023-04-03T07:53:11.496Z,23.08
2023-04-03T07:54:11.553Z,23.10
2023-04-03T07:55:11.603Z,23.07
2023-04-03T07:56:11.671Z,23.05
2023-04-03T07:57:11.738Z,23.05
2023-04-03T07:58:11.764Z,23.03
2023-04-03T07:59:11.832Z,23.00
2023-04-03T08:00:11.867Z,22.96
2023-04-03T08:01:11.919Z,22.92
2023-04-03T08:02:11.962Z,22.90
2023-04-03T08:03:12.848Z,22.91
2023-04-03T08:04:12.164Z,22.90
2023-04-03T08:05:12.119Z,22.89
2023-04-03T08:06:15.935Z,22.85
2023-04-03T08:07:12.221Z,22.90
2023-04-03T08:08:12.143Z,22.89
2023-04-03T08:09:12.156Z,22.88
2023-04-03T08:10:12.123Z,22.90
2023-04-03T08:11:12.137Z,22.89
2023-04-03T08:12:12.126Z,22.86
2023-04-03T08:13:12.136Z,22.84
2023-04-03T08:14:12.225Z,22.83
2023-04-03T08:15:12.088Z,22.80
2023-04-03T08:16:12.173Z,22.78
2023-04-03T08:17:12.088Z,22.78
2023-04-03T08:18:12.083Z,22.77
2023-04-03T08:19:22.455Z,22.73
2023-04-03T08:20:13.082Z,22.73
2023-04-03T08:21:12.061Z,22.67
2023-04-03T08:22:12.070Z,22.67
2023-04-03T08:23:12.065Z,22.61
2023-04-03T08:24:12.111Z,22.61
2023-04-03T08:25:12.033Z,22.55
2023-04-03T08:26:12.018Z,22.52
2023-04-03T08:27:12.002Z,22.46
2023-04-03T08:28:12.022Z,22.45
2023-04-03T08:29:11.992Z,22.42
2023-04-03T08:30:12.002Z,22.40
2023-04-03T08:31:12.062Z,22.41
2023-04-03T08:32:11.986Z,22.37
2023-04-03T08:33:12.131Z,22.39
2023-04-03T08:34:11.975Z,22.39
2023-04-03T08:35:12.006Z,22.34
2023-04-03T08:36:12.024Z,22.33
2023-04-03T08:37:12.052Z,22.30
2023-04-03T08:38:12.098Z,22.30
2023-04-03T08:39:12.107Z,22.27
2023-04-03T08:40:12.123Z,22.27
2023-04-03T08:41:12.156Z,22.24
2023-04-03T08:42:12.246Z,22.21
2023-04-03T08:43:12.193Z,22.25
2023-04-03T08:44:12.213Z,22.21
2023-04-03T08:45:12.224Z,22.22
2023-04-03T08:46:12.279Z,22.19
2023-04-03T08:47:12.246Z,22.16
2023-04-03T08:48:12.276Z,22.16
2023-04-03T08:49:13.918Z,22.13
2023-04-03T08:50:12.294Z,22.10
2023-04-03T08:51:12.861Z,22.02
2023-04-03T08:52:12.266Z,21.96
2023-04-03T08:53:12.281Z,21.79
2023-04-03T08:54:12.269Z,21.65
2023-04-03T08:55:12.271Z,21.54
2023-04-03T08:56:12.292Z,21.55
2023-04-03T08:57:12.343Z,21.56
2023-04-03T08:58:12.414Z,21.54
2023-04-03T08:59:12.364Z,21.51
2023-04-03T09:00:12.385Z,21.51
2023-04-03T09:01:12.458Z,21.50
2023-04-03T09:02:12.429Z,21.49
2023-04-03T09:03:12.502Z,21.53
2023-04-03T09:04:12.915Z,21.52
2023-04-03T09:05:12.492Z,21.52
2023-04-03T09:06:12.505Z,21.51
2023-04-03T09:07:12.535Z,21.50
2023-04-03T09:08:12.546Z,21.50
2023-04-03T09:09:12.595Z,21.47
2023-04-03T09:10:12.614Z,21.46
2023-04-03T09:11:12.668Z,21.44
2023-04-03T09:12:12.705Z,21.46
2023-04-03T09:13:12.759Z,21.45
2023-04-03T09:14:12.883Z,21.46
2023-04-03T09:15:12.825Z,21.44
2023-04-03T09:16:12.863Z,21.46
2023-04-03T09:17:12.870Z,21.43
2023-04-03T09:18:12.972Z,21.45
2023-04-03T09:19:12.983Z,21.39
2023-04-03T09:20:13.025Z,21.32
2023-04-03T09:21:13.067Z,21.24
2023-04-03T09:22:13.118Z,21.20
2023-04-03T09:23:13.202Z,21.13
2023-04-03T09:24:13.255Z,21.05
2023-04-03T09:25:13.292Z,20.92
2023-04-03T09:26:13.360Z,20.82
2023-04-03T09:27:13.425Z,20.81
2023-04-03T09:28:13.491Z,20.85
2023-04-03T09:29:13.481Z,20.93
2023-04-03T09:30:13.545Z,20.92
2023-04-03T09:31:13.621Z,20.94
2023-04-03T09:32:13.650Z,20.96
2023-04-03T09:33:13.746Z,21.02
2023-04-03T09:34:13.745Z,21.02
2023-04-03T09:35:20.494Z,21.06
2023-04-03T09:36:14.883Z,21.06
2023-04-03T09:37:13.788Z,21.02
2023-04-03T09:38:13.797Z,20.95
2023-04-03T09:39:13.784Z,20.89
2023-04-03T09:40:13.759Z,20.95
2023-04-03T09:41:13.766Z,20.99
2023-04-03T09:42:13.756Z,21.02
2023-04-03T09:43:13.752Z,21.01
2023-04-03T09:44:13.764Z,20.98
2023-04-03T09:45:13.743Z,21.02
2023-04-03T09:46:13.971Z,21.03
2023-04-03T09:47:13.904Z,20.97
2023-04-03T09:48:16.215Z,20.91
2023-04-03T09:49:13.907Z,20.82
2023-04-03T09:50:13.909Z,20.69
2023-04-03T09:51:13.926Z,20.64
2023-04-03T09:52:13.884Z,20.77
2023-04-03T09:53:13.860Z,20.80
2023-04-03T09:54:13.871Z,20.83
2023-04-03T09:55:13.852Z,20.78
2023-04-03T09:56:13.858Z,20.80
2023-04-03T09:57:13.866Z,20.83
2023-04-03T09:58:13.845Z,20.83
2023-04-03T09:59:13.838Z,20.79
2023-04-03T10:00:13.842Z,20.79
2023-04-03T10:01:13.886Z,20.74
2023-04-03T10:02:13.896Z,20.69
2023-04-03T10:03:13.822Z,20.65
2023-04-03T10:04:13.798Z,20.62
2023-04-03T10:05:13.805Z,20.63
2023-04-03T10:06:13.766Z,20.56
2023-04-03T10:07:13.774Z,20.44
2023-04-03T10:08:13.785Z,20.37
2023-04-03T10:09:13.758Z,20.24
2023-04-03T10:10:13.762Z,20.22
2023-04-03T10:11:13.734Z,20.32
2023-04-03T10:12:13.752Z,20.45
2023-04-03T10:13:20.215Z,20.55
2023-04-03T10:14:14.721Z,20.66
2023-04-03T10:15:13.745Z,20.74
2023-04-03T10:16:13.705Z,20.85
2023-04-03T10:17:13.709Z,20.90
2023-04-03T10:18:24.036Z,20.98
2023-04-03T10:19:14.675Z,21.06
2023-04-03T10:20:13.748Z,21.06
2023-04-03T10:22:13.661Z,21.12
2023-04-03T10:23:13.704Z,21.17
2023-04-03T10:24:13.649Z,21.16
2023-04-03T10:25:13.649Z,21.19
2023-04-03T10:26:14.676Z,21.17
2023-04-03T10:27:13.617Z,21.22
2023-04-03T10:28:13.621Z,21.19
2023-04-03T10:29:13.687Z,21.20
2023-04-03T10:30:13.736Z,21.20
2023-04-03T10:31:13.815Z,21.62
2023-04-03T10:32:13.746Z,22.36
2023-04-03T10:33:13.761Z,23.05
2023-04-03T10:34:13.895Z,22.55
2023-04-03T10:35:13.806Z,22.25
2023-04-03T10:36:13.845Z,22.02
2023-04-03T10:37:13.833Z,21.83
2023-04-03T10:38:13.823Z,22.07
2023-04-03T10:39:13.823Z,22.22
2023-04-03T10:40:13.840Z,22.26
2023-04-03T10:41:15.740Z,21.98
2023-04-03T10:42:17.710Z,22.30
2023-04-03T10:43:13.976Z,22.35
2023-04-03T10:44:13.994Z,21.68
2023-04-03T10:45:13.970Z,21.41
2023-04-03T10:46:13.995Z,21.56
2023-04-03T10:47:13.933Z,22.14
2023-04-03T10:48:13.969Z,22.06
2023-04-03T10:49:13.921Z,21.97
2023-04-03T10:50:14.004Z,22.09
2023-04-03T10:51:13.915Z,21.73
2023-04-03T10:52:13.913Z,22.63
2023-04-03T10:53:13.885Z,22.44
2023-04-03T10:54:13.905Z,22.30
2023-04-03T10:55:13.872Z,22.85
2023-04-03T10:56:13.868Z,23.01
2023-04-03T10:57:14.288Z,22.53
2023-04-03T10:58:14.565Z,22.41
2023-04-03T10:59:13.850Z,22.54
2023-04-03T11:00:13.835Z,22.49
2023-04-03T11:01:13.886Z,22.40
2023-04-03T11:02:13.855Z,22.35
2023-04-03T11:03:13.998Z,22.38
2023-04-03T11:04:13.927Z,22.31
2023-04-03T11:05:13.834Z,22.41
2023-04-03T11:06:13.875Z,22.41
2023-04-03T11:07:13.798Z,22.28
2023-04-03T11:08:13.828Z,22.11
2023-04-03T11:09:13.773Z,21.94
2023-04-03T11:10:14.736Z,21.85
2023-04-03T11:11:13.784Z,21.58
2023-04-03T11:12:13.757Z,21.54
2023-04-03T11:13:13.782Z,21.28
2023-04-03T11:14:13.739Z,21.06
2023-04-03T11:15:13.748Z,25.21
2023-04-03T11:16:13.737Z,28.74
2023-04-03T11:17:13.725Z,31.35
2023-04-03T11:18:13.759Z,32.11
2023-04-03T11:19:13.708Z,32.08
2023-04-03T11:20:13.815Z,30.84
2023-04-03T11:21:13.681Z,30.31
2023-04-03T11:22:13.778Z,29.25
2023-04-03T11:23:13.685Z,28.79
2023-04-03T11:24:13.663Z,28.19
2023-04-03T11:25:13.704Z,27.75
2023-04-03T11:26:13.693Z,26.64
2023-04-03T11:27:13.634Z,25.66
2023-04-03T11:28:13.647Z,25.34
2023-04-03T11:29:17.907Z,24.50
2023-04-03T11:30:14.656Z,24.54
2023-04-03T11:31:13.619Z,24.15
2023-04-03T11:32:13.594Z,24.09
2023-04-03T11:33:13.603Z,24.00
2023-04-03T11:34:13.600Z,23.92
2023-04-03T11:35:13.573Z,23.75
2023-04-03T11:36:25.005Z,23.70
2023-04-03T11:37:14.576Z,23.58
2023-04-03T11:38:13.637Z,23.47
2023-04-03T11:39:13.560Z,23.45
2023-04-03T11:40:13.558Z,23.42
2023-04-03T11:41:13.544Z,23.30
2023-04-03T11:42:13.577Z,23.28
2023-04-03T11:43:13.512Z,23.16
2023-04-03T11:44:13.523Z,23.07
2023-04-03T11:45:13.581Z,23.08
2023-04-03T11:46:13.692Z,23.05
2023-04-03T11:47:13.692Z,23.04
2023-04-03T11:48:24.447Z,22.99
2023-04-03T11:49:14.760Z,22.94
2023-04-03T11:50:13.735Z,22.89
2023-04-03T11:51:13.744Z,22.76
2023-04-03T11:52:13.733Z,22.80
2023-04-03T11:53:13.705Z,22.75
2023-04-03T11:54:13.793Z,22.64
2023-04-03T11:55:13.712Z,22.66
2023-04-03T11:56:13.723Z,22.62
2023-04-03T11:57:13.793Z,22.57
2023-04-03T11:58:13.815Z,22.51
2023-04-03T11:59:13.909Z,22.53
2023-04-03T12:00:13.930Z,22.48
2023-04-03T12:01:13.999Z,22.40
2023-04-03T12:02:14.061Z,22.43
2023-04-03T12:03:14.160Z,22.36
2023-04-03T12:04:14.203Z,22.27
2023-04-03T12:05:14.226Z,22.19
2023-04-03T12:06:14.263Z,22.21
2023-04-03T12:07:14.328Z,22.24
2023-04-03T12:08:14.376Z,22.23
2023-04-03T12:09:14.457Z,22.17
2023-04-03T12:11:14.736Z,22.18
2023-04-03T12:12:14.597Z,22.12
2023-04-03T12:13:14.656Z,22.03
2023-04-03T12:14:14.733Z,21.98
2023-04-03T12:15:14.805Z,22.02
2023-04-03T12:16:14.845Z,21.99
2023-04-03T12:17:14.929Z,22.00
2023-04-03T12:18:14.978Z,21.97
2023-04-03T12:19:15.026Z,21.87
2023-04-03T12:20:15.072Z,21.88
2023-04-03T12:21:15.105Z,21.84
2023-04-03T12:22:15.160Z,21.80
2023-04-03T12:23:15.246Z,21.74
2023-04-03T12:24:15.277Z,21.77
2023-04-03T12:25:15.344Z,21.64
2023-04-03T12:26:15.461Z,21.56
2023-04-03T12:27:15.464Z,21.65
2023-04-03T12:28:15.506Z,21.65
2023-04-03T12:29:15.555Z,21.59
2023-04-03T12:30:15.657Z,21.57
2023-04-03T12:31:15.708Z,21.51
2023-04-03T12:32:15.730Z,21.58
2023-04-03T12:33:15.875Z,21.48
2023-04-03T12:34:15.887Z,21.50
2023-04-03T12:35:15.892Z,21.41
2023-04-03T12:36:15.999Z,21.45
2023-04-03T12:37:16.006Z,21.46
2023-04-03T12:38:16.078Z,21.37
2023-04-03T12:39:16.128Z,21.43
2023-04-03T12:40:16.181Z,21.35
2023-04-03T12:41:16.260Z,21.35
2023-04-03T12:42:16.390Z,21.31
2023-04-03T12:43:16.362Z,21.34
2023-04-03T12:44:16.426Z,21.35
2023-04-03T12:45:16.494Z,21.31
2023-04-03T12:46:16.614Z,21.23
2023-04-03T12:47:16.709Z,21.28
2023-04-03T12:48:16.680Z,21.25
2023-04-03T12:49:16.743Z,21.26
2023-04-03T12:50:16.802Z,21.20
2023-04-03T12:51:16.862Z,21.16
2023-04-03T12:52:16.888Z,21.14
2023-04-03T12:53:16.982Z,21.09
2023-04-03T12:54:17.027Z,21.14
2023-04-03T12:55:17.067Z,21.01